sensor_id;sensor_type;location;lat;lon;timestamp;P1;durP1;ratioP1;P2;durP2;ratioP2
27612;SDS011;15036;48.094;-1.690;2023-07-31T00:01:52;17.30;;;8.00;;
27612;SDS011;15036;48.094;-1.690;2023-07-31T00:04:17;17.70;;;8.03;;
27612;SDS011;15036;48.094;-1.690;2023-07-31T00:06:43;17.50;;;8.23;;
27612;SDS011;15036;48.094;-1.690;2023-07-31T00:09:08;18.03;;;7.80;;
27612;SDS011;15036;48.094;-1.690;2023-07-31T00:11:33;16.40;;;7.83;;
27612;SDS011;15036;48.094;-1.690;2023-07-31T00:13:59;19.57;;;8.23;;
27612;SDS011;15036;48.094;-1.690;2023-07-31T00:16:24;16.57;;;8.10;;
27612;SDS011;15036;48.094;-1.690;2023-07-31T00:18:50;18.20;;;8.45;;
27612;SDS011;15036;48.094;-1.690;2023-07-31T00:21:15;19.50;;;7.70;;
27612;SDS011;15036;48.094;-1.690;2023-07-31T00:23:43;18.50;;;7.95;;
27612;SDS011;15036;48.094;-1.690;2023-07-31T00:26:08;17.50;;;8.10;;
27612;SDS011;15036;48.094;-1.690;2023-07-31T00:28:33;21.30;;;8.40;;
27612;SDS011;15036;48.094;-1.690;2023-07-31T00:30:59;17.17;;;7.87;;
27612;SDS011;15036;48.094;-1.690;2023-07-31T00:33:24;22.10;;;8.10;;
27612;SDS011;15036;48.094;-1.690;2023-07-31T00:35:50;17.80;;;8.07;;
27612;SDS011;15036;48.094;-1.690;2023-07-31T00:38:15;18.17;;;8.13;;
27612;SDS011;15036;48.094;-1.690;2023-07-31T00:40:40;17.23;;;7.90;;
27612;SDS011;15036;48.094;-1.690;2023-07-31T00:43:06;19.25;;;8.05;;
27612;SDS011;15036;48.094;-1.690;2023-07-31T00:45:31;17.50;;;8.37;;
27612;SDS011;15036;48.094;-1.690;2023-07-31T00:47:57;19.40;;;8.43;;
27612;SDS011;15036;48.094;-1.690;2023-07-31T00:50:24;17.92;;;8.18;;
27612;SDS011;15036;48.094;-1.690;2023-07-31T00:52:50;19.40;;;8.20;;
27612;SDS011;15036;48.094;-1.690;2023-07-31T00:55:15;17.48;;;8.05;;
27612;SDS011;15036;48.094;-1.690;2023-07-31T00:57:41;18.45;;;8.43;;
27612;SDS011;15036;48.094;-1.690;2023-07-31T01:00:08;16.60;;;8.18;;
27612;SDS011;15036;48.094;-1.690;2023-07-31T01:02:33;18.10;;;8.00;;
27612;SDS011;15036;48.094;-1.690;2023-07-31T01:05:00;17.23;;;7.68;;
27612;SDS011;15036;48.094;-1.690;2023-07-31T01:07:28;18.90;;;8.00;;
27612;SDS011;15036;48.094;-1.690;2023-07-31T01:10:04;16.52;;;7.70;;
27612;SDS011;15036;48.094;-1.690;2023-07-31T01:12:35;18.55;;;8.20;;
27612;SDS011;15036;48.094;-1.690;2023-07-31T01:15:07;16.33;;;8.25;;
27612;SDS011;15036;48.094;-1.690;2023-07-31T01:17:37;18.47;;;8.23;;
27612;SDS011;15036;48.094;-1.690;2023-07-31T01:20:03;17.02;;;7.63;;
27612;SDS011;15036;48.094;-1.690;2023-07-31T01:31:40;17.67;;;7.40;;
27612;SDS011;15036;48.094;-1.690;2023-07-31T01:34:08;16.75;;;7.78;;
27612;SDS011;15036;48.094;-1.690;2023-07-31T01:36:35;18.45;;;7.93;;
27612;SDS011;15036;48.094;-1.690;2023-07-31T01:39:00;18.57;;;8.20;;
27612;SDS011;15036;48.094;-1.690;2023-07-31T01:41:29;19.40;;;8.02;;
27612;SDS011;15036;48.094;-1.690;2023-07-31T01:43:54;16.87;;;7.67;;
27612;SDS011;15036;48.094;-1.690;2023-07-31T01:46:20;15.65;;;7.53;;
27612;SDS011;15036;48.094;-1.690;2023-07-31T01:48:45;17.60;;;7.70;;
27612;SDS011;15036;48.094;-1.690;2023-07-31T01:51:10;19.03;;;7.90;;
27612;SDS011;15036;48.094;-1.690;2023-07-31T01:53:36;16.87;;;8.20;;
27612;SDS011;15036;48.094;-1.690;2023-07-31T01:56:01;17.87;;;7.47;;
27612;SDS011;15036;48.094;-1.690;2023-07-31T01:58:26;18.42;;;7.78;;
27612;SDS011;15036;48.094;-1.690;2023-07-31T02:00:52;19.00;;;7.80;;
27612;SDS011;15036;48.094;-1.690;2023-07-31T02:03:17;17.40;;;7.47;;
27612;SDS011;15036;48.094;-1.690;2023-07-31T02:05:45;18.53;;;7.70;;
27612;SDS011;15036;48.094;-1.690;2023-07-31T02:08:12;17.50;;;7.93;;
27612;SDS011;15036;48.094;-1.690;2023-07-31T02:10:37;16.55;;;7.75;;
27612;SDS011;15036;48.094;-1.690;2023-07-31T02:13:03;16.47;;;7.47;;
27612;SDS011;15036;48.094;-1.690;2023-07-31T02:15:29;15.80;;;7.70;;
27612;SDS011;15036;48.094;-1.690;2023-07-31T02:17:55;17.30;;;7.97;;
27612;SDS011;15036;48.094;-1.690;2023-07-31T02:20:20;18.52;;;7.75;;
27612;SDS011;15036;48.094;-1.690;2023-07-31T02:22:45;17.07;;;7.70;;
27612;SDS011;15036;48.094;-1.690;2023-07-31T02:25:11;18.30;;;7.90;;
27612;SDS011;15036;48.094;-1.690;2023-07-31T02:27:36;16.83;;;7.80;;
27612;SDS011;15036;48.094;-1.690;2023-07-31T02:30:01;17.73;;;7.77;;
27612;SDS011;15036;48.094;-1.690;2023-07-31T02:32:27;17.90;;;7.50;;
27612;SDS011;15036;48.094;-1.690;2023-07-31T02:34:52;17.43;;;7.53;;
27612;SDS011;15036;48.094;-1.690;2023-07-31T02:37:18;17.60;;;8.27;;
27612;SDS011;15036;48.094;-1.690;2023-07-31T02:39:43;15.57;;;7.93;;
27612;SDS011;15036;48.094;-1.690;2023-07-31T02:42:08;15.73;;;7.60;;
27612;SDS011;15036;48.094;-1.690;2023-07-31T02:44:34;17.00;;;8.13;;
27612;SDS011;15036;48.094;-1.690;2023-07-31T02:46:59;16.97;;;7.17;;
27612;SDS011;15036;48.094;-1.690;2023-07-31T02:49:24;16.73;;;7.60;;
27612;SDS011;15036;48.094;-1.690;2023-07-31T02:51:50;16.05;;;7.88;;
27612;SDS011;15036;48.094;-1.690;2023-07-31T02:54:15;14.57;;;7.27;;
27612;SDS011;15036;48.094;-1.690;2023-07-31T02:56:40;17.87;;;7.77;;
27612;SDS011;15036;48.094;-1.690;2023-07-31T02:59:06;17.33;;;7.50;;
27612;SDS011;15036;48.094;-1.690;2023-07-31T03:01:31;16.83;;;7.73;;
27612;SDS011;15036;48.094;-1.690;2023-07-31T03:03:56;17.17;;;7.83;;
27612;SDS011;15036;48.094;-1.690;2023-07-31T03:06:22;15.60;;;7.33;;
27612;SDS011;15036;48.094;-1.690;2023-07-31T03:08:47;16.23;;;7.57;;
27612;SDS011;15036;48.094;-1.690;2023-07-31T03:11:12;18.13;;;7.70;;
27612;SDS011;15036;48.094;-1.690;2023-07-31T03:13:38;16.70;;;7.07;;
27612;SDS011;15036;48.094;-1.690;2023-07-31T03:16:03;17.60;;;7.70;;
27612;SDS011;15036;48.094;-1.690;2023-07-31T03:18:28;16.83;;;7.67;;
27612;SDS011;15036;48.094;-1.690;2023-07-31T03:20:54;14.50;;;7.30;;
27612;SDS011;15036;48.094;-1.690;2023-07-31T03:23:19;17.10;;;7.67;;
27612;SDS011;15036;48.094;-1.690;2023-07-31T03:28:28;16.23;;;7.17;;
27612;SDS011;15036;48.094;-1.690;2023-07-31T03:30:53;17.27;;;7.30;;
27612;SDS011;15036;48.094;-1.690;2023-07-31T03:33:18;15.75;;;7.10;;
27612;SDS011;15036;48.094;-1.690;2023-07-31T03:35:44;15.93;;;7.10;;
27612;SDS011;15036;48.094;-1.690;2023-07-31T03:38:10;15.55;;;7.65;;
27612;SDS011;15036;48.094;-1.690;2023-07-31T03:40:35;16.33;;;7.10;;
27612;SDS011;15036;48.094;-1.690;2023-07-31T03:43:00;15.57;;;6.97;;
27612;SDS011;15036;48.094;-1.690;2023-07-31T03:45:26;16.30;;;7.40;;
27612;SDS011;15036;48.094;-1.690;2023-07-31T03:47:51;17.63;;;7.60;;
27612;SDS011;15036;48.094;-1.690;2023-07-31T03:50:17;15.80;;;6.60;;
27612;SDS011;15036;48.094;-1.690;2023-07-31T03:52:42;15.63;;;7.20;;
27612;SDS011;15036;48.094;-1.690;2023-07-31T03:55:08;15.10;;;7.07;;
27612;SDS011;15036;48.094;-1.690;2023-07-31T03:57:33;13.05;;;6.93;;
27612;SDS011;15036;48.094;-1.690;2023-07-31T03:59:59;16.60;;;7.47;;
27612;SDS011;15036;48.094;-1.690;2023-07-31T04:02:24;13.90;;;6.83;;
27612;SDS011;15036;48.094;-1.690;2023-07-31T04:04:49;14.23;;;6.90;;
27612;SDS011;15036;48.094;-1.690;2023-07-31T04:07:15;15.30;;;6.93;;
27612;SDS011;15036;48.094;-1.690;2023-07-31T04:09:40;18.07;;;7.20;;
27612;SDS011;15036;48.094;-1.690;2023-07-31T04:12:06;19.47;;;7.03;;
27612;SDS011;15036;48.094;-1.690;2023-07-31T04:14:31;17.20;;;7.07;;
27612;SDS011;15036;48.094;-1.690;2023-07-31T04:16:57;15.27;;;7.03;;
27612;SDS011;15036;48.094;-1.690;2023-07-31T04:19:22;15.53;;;6.47;;
27612;SDS011;15036;48.094;-1.690;2023-07-31T04:21:47;15.77;;;6.90;;
27612;SDS011;15036;48.094;-1.690;2023-07-31T04:24:12;16.33;;;6.77;;
27612;SDS011;15036;48.094;-1.690;2023-07-31T04:26:38;14.18;;;6.90;;
27612;SDS011;15036;48.094;-1.690;2023-07-31T04:29:03;16.50;;;7.00;;
27612;SDS011;15036;48.094;-1.690;2023-07-31T04:31:29;14.07;;;6.77;;
27612;SDS011;15036;48.094;-1.690;2023-07-31T04:33:54;14.38;;;6.75;;
27612;SDS011;15036;48.094;-1.690;2023-07-31T04:36:19;15.63;;;6.60;;
27612;SDS011;15036;48.094;-1.690;2023-07-31T04:38:45;15.50;;;6.83;;
27612;SDS011;15036;48.094;-1.690;2023-07-31T04:41:10;14.13;;;6.47;;
27612;SDS011;15036;48.094;-1.690;2023-07-31T04:43:35;17.50;;;7.03;;
27612;SDS011;15036;48.094;-1.690;2023-07-31T04:46:04;15.18;;;7.13;;
27612;SDS011;15036;48.094;-1.690;2023-07-31T04:48:29;17.20;;;7.13;;
27612;SDS011;15036;48.094;-1.690;2023-07-31T04:50:54;15.50;;;6.87;;
27612;SDS011;15036;48.094;-1.690;2023-07-31T04:53:20;15.00;;;6.83;;
27612;SDS011;15036;48.094;-1.690;2023-07-31T04:55:45;17.80;;;7.13;;
27612;SDS011;15036;48.094;-1.690;2023-07-31T04:58:10;16.20;;;6.63;;
27612;SDS011;15036;48.094;-1.690;2023-07-31T05:00:36;14.67;;;6.97;;
27612;SDS011;15036;48.094;-1.690;2023-07-31T05:03:01;15.07;;;6.95;;
27612;SDS011;15036;48.094;-1.690;2023-07-31T05:05:26;15.50;;;6.80;;
27612;SDS011;15036;48.094;-1.690;2023-07-31T05:07:52;15.83;;;6.87;;
27612;SDS011;15036;48.094;-1.690;2023-07-31T05:10:17;15.20;;;6.70;;
27612;SDS011;15036;48.094;-1.690;2023-07-31T05:12:42;14.83;;;6.37;;
27612;SDS011;15036;48.094;-1.690;2023-07-31T05:15:08;13.50;;;6.30;;
27612;SDS011;15036;48.094;-1.690;2023-07-31T05:17:34;13.30;;;6.80;;
27612;SDS011;15036;48.094;-1.690;2023-07-31T05:19:59;14.47;;;6.53;;
27612;SDS011;15036;48.094;-1.690;2023-07-31T05:22:24;14.27;;;6.07;;
27612;SDS011;15036;48.094;-1.690;2023-07-31T05:24:50;17.23;;;6.50;;
27612;SDS011;15036;48.094;-1.690;2023-07-31T05:27:15;15.53;;;6.57;;
27612;SDS011;15036;48.094;-1.690;2023-07-31T05:29:43;17.30;;;6.70;;
27612;SDS011;15036;48.094;-1.690;2023-07-31T05:32:09;14.07;;;6.80;;
27612;SDS011;15036;48.094;-1.690;2023-07-31T05:34:34;15.43;;;6.70;;
27612;SDS011;15036;48.094;-1.690;2023-07-31T05:37:00;15.05;;;6.20;;
27612;SDS011;15036;48.094;-1.690;2023-07-31T05:39:25;13.73;;;6.27;;
27612;SDS011;15036;48.094;-1.690;2023-07-31T05:41:50;11.53;;;5.87;;
27612;SDS011;15036;48.094;-1.690;2023-07-31T05:44:16;15.50;;;6.63;;
27612;SDS011;15036;48.094;-1.690;2023-07-31T05:46:41;13.17;;;5.57;;
27612;SDS011;15036;48.094;-1.690;2023-07-31T05:49:06;15.43;;;6.10;;
27612;SDS011;15036;48.094;-1.690;2023-07-31T05:51:32;13.93;;;6.00;;
27612;SDS011;15036;48.094;-1.690;2023-07-31T05:53:57;14.40;;;5.90;;
27612;SDS011;15036;48.094;-1.690;2023-07-31T05:56:22;13.88;;;5.70;;
27612;SDS011;15036;48.094;-1.690;2023-07-31T05:58:48;12.47;;;5.47;;
27612;SDS011;15036;48.094;-1.690;2023-07-31T06:01:15;13.75;;;5.50;;
27612;SDS011;15036;48.094;-1.690;2023-07-31T06:03:42;12.52;;;5.53;;
27612;SDS011;15036;48.094;-1.690;2023-07-31T06:06:07;13.20;;;5.83;;
27612;SDS011;15036;48.094;-1.690;2023-07-31T06:08:33;13.10;;;5.47;;
27612;SDS011;15036;48.094;-1.690;2023-07-31T06:10:58;13.90;;;5.83;;
27612;SDS011;15036;48.094;-1.690;2023-07-31T06:13:23;12.80;;;5.63;;
27612;SDS011;15036;48.094;-1.690;2023-07-31T06:15:49;12.60;;;5.47;;
27612;SDS011;15036;48.094;-1.690;2023-07-31T06:18:14;15.70;;;5.87;;
27612;SDS011;15036;48.094;-1.690;2023-07-31T06:20:39;11.20;;;5.07;;
27612;SDS011;15036;48.094;-1.690;2023-07-31T06:23:05;11.45;;;5.35;;
27612;SDS011;15036;48.094;-1.690;2023-07-31T06:25:31;13.07;;;5.00;;
27612;SDS011;15036;48.094;-1.690;2023-07-31T06:27:56;11.33;;;4.77;;
27612;SDS011;15036;48.094;-1.690;2023-07-31T06:30:22;12.93;;;4.83;;
27612;SDS011;15036;48.094;-1.690;2023-07-31T06:32:47;12.50;;;4.93;;
27612;SDS011;15036;48.094;-1.690;2023-07-31T06:35:12;12.53;;;5.23;;
27612;SDS011;15036;48.094;-1.690;2023-07-31T06:37:38;11.95;;;5.25;;
27612;SDS011;15036;48.094;-1.690;2023-07-31T06:40:05;13.23;;;4.70;;
27612;SDS011;15036;48.094;-1.690;2023-07-31T06:42:32;10.60;;;4.63;;
27612;SDS011;15036;48.094;-1.690;2023-07-31T06:44:58;9.37;;;4.40;;
27612;SDS011;15036;48.094;-1.690;2023-07-31T06:47:23;10.10;;;4.33;;
27612;SDS011;15036;48.094;-1.690;2023-07-31T06:49:48;13.23;;;4.67;;
27612;SDS011;15036;48.094;-1.690;2023-07-31T06:52:14;12.40;;;4.53;;
27612;SDS011;15036;48.094;-1.690;2023-07-31T06:54:39;13.73;;;5.20;;
27612;SDS011;15036;48.094;-1.690;2023-07-31T06:57:04;12.43;;;4.60;;
27612;SDS011;15036;48.094;-1.690;2023-07-31T06:59:30;11.03;;;4.50;;
27612;SDS011;15036;48.094;-1.690;2023-07-31T07:01:55;13.73;;;4.73;;
27612;SDS011;15036;48.094;-1.690;2023-07-31T07:04:20;11.57;;;4.67;;
27612;SDS011;15036;48.094;-1.690;2023-07-31T07:06:46;10.40;;;4.28;;
27612;SDS011;15036;48.094;-1.690;2023-07-31T07:09:11;13.07;;;4.90;;
27612;SDS011;15036;48.094;-1.690;2023-07-31T07:11:37;12.13;;;5.00;;
27612;SDS011;15036;48.094;-1.690;2023-07-31T07:14:02;12.20;;;4.60;;
27612;SDS011;15036;48.094;-1.690;2023-07-31T07:16:28;10.67;;;4.53;;
27612;SDS011;15036;48.094;-1.690;2023-07-31T07:18:54;10.53;;;4.50;;
27612;SDS011;15036;48.094;-1.690;2023-07-31T07:21:19;10.43;;;4.77;;
27612;SDS011;15036;48.094;-1.690;2023-07-31T07:23:44;10.30;;;4.50;;
27612;SDS011;15036;48.094;-1.690;2023-07-31T07:26:10;11.07;;;4.67;;
27612;SDS011;15036;48.094;-1.690;2023-07-31T07:28:35;11.20;;;4.30;;
27612;SDS011;15036;48.094;-1.690;2023-07-31T07:31:02;11.13;;;4.30;;
27612;SDS011;15036;48.094;-1.690;2023-07-31T07:33:27;8.67;;;3.80;;
27612;SDS011;15036;48.094;-1.690;2023-07-31T07:35:53;9.17;;;4.00;;
27612;SDS011;15036;48.094;-1.690;2023-07-31T07:38:19;9.93;;;4.10;;
27612;SDS011;15036;48.094;-1.690;2023-07-31T07:40:44;9.77;;;4.00;;
27612;SDS011;15036;48.094;-1.690;2023-07-31T07:43:11;10.38;;;4.10;;
27612;SDS011;15036;48.094;-1.690;2023-07-31T07:45:37;10.83;;;4.20;;
27612;SDS011;15036;48.094;-1.690;2023-07-31T07:48:02;8.97;;;4.13;;
27612;SDS011;15036;48.094;-1.690;2023-07-31T07:50:28;8.88;;;3.90;;
27612;SDS011;15036;48.094;-1.690;2023-07-31T07:52:53;11.93;;;4.23;;
27612;SDS011;15036;48.094;-1.690;2023-07-31T07:55:19;11.80;;;4.07;;
27612;SDS011;15036;48.094;-1.690;2023-07-31T07:57:44;9.40;;;3.83;;
27612;SDS011;15036;48.094;-1.690;2023-07-31T08:00:10;9.93;;;4.10;;
27612;SDS011;15036;48.094;-1.690;2023-07-31T08:02:36;10.57;;;3.83;;
27612;SDS011;15036;48.094;-1.690;2023-07-31T08:05:02;10.33;;;4.10;;
27612;SDS011;15036;48.094;-1.690;2023-07-31T08:07:27;9.23;;;4.13;;
27612;SDS011;15036;48.094;-1.690;2023-07-31T08:09:52;10.18;;;3.80;;
27612;SDS011;15036;48.094;-1.690;2023-07-31T08:12:18;9.00;;;3.83;;
27612;SDS011;15036;48.094;-1.690;2023-07-31T08:14:43;10.45;;;3.78;;
27612;SDS011;15036;48.094;-1.690;2023-07-31T08:17:08;9.00;;;3.80;;
27612;SDS011;15036;48.094;-1.690;2023-07-31T08:19:34;8.30;;;3.47;;
27612;SDS011;15036;48.094;-1.690;2023-07-31T08:21:59;10.63;;;3.80;;
27612;SDS011;15036;48.094;-1.690;2023-07-31T08:24:24;8.60;;;3.60;;
27612;SDS011;15036;48.094;-1.690;2023-07-31T08:26:50;7.82;;;3.45;;
27612;SDS011;15036;48.094;-1.690;2023-07-31T08:29:15;8.17;;;3.60;;
27612;SDS011;15036;48.094;-1.690;2023-07-31T08:31:40;7.70;;;3.20;;
27612;SDS011;15036;48.094;-1.690;2023-07-31T08:34:06;8.73;;;3.33;;
27612;SDS011;15036;48.094;-1.690;2023-07-31T08:36:31;8.27;;;3.50;;
27612;SDS011;15036;48.094;-1.690;2023-07-31T08:38:56;7.17;;;3.10;;
27612;SDS011;15036;48.094;-1.690;2023-07-31T08:41:22;8.53;;;3.37;;
27612;SDS011;15036;48.094;-1.690;2023-07-31T08:43:48;8.17;;;3.33;;
27612;SDS011;15036;48.094;-1.690;2023-07-31T08:46:15;7.28;;;3.25;;
27612;SDS011;15036;48.094;-1.690;2023-07-31T08:48:41;7.28;;;3.38;;
27612;SDS011;15036;48.094;-1.690;2023-07-31T08:51:07;6.70;;;3.30;;
27612;SDS011;15036;48.094;-1.690;2023-07-31T08:53:33;7.25;;;3.17;;
27612;SDS011;15036;48.094;-1.690;2023-07-31T08:55:59;9.00;;;3.50;;
27612;SDS011;15036;48.094;-1.690;2023-07-31T08:58:25;8.48;;;3.33;;
27612;SDS011;15036;48.094;-1.690;2023-07-31T09:00:55;5.68;;;3.13;;
27612;SDS011;15036;48.094;-1.690;2023-07-31T09:03:23;7.45;;;3.03;;
27612;SDS011;15036;48.094;-1.690;2023-07-31T09:05:50;7.47;;;3.13;;
27612;SDS011;15036;48.094;-1.690;2023-07-31T09:08:18;7.97;;;3.30;;
27612;SDS011;15036;48.094;-1.690;2023-07-31T09:10:45;6.55;;;3.00;;
27612;SDS011;15036;48.094;-1.690;2023-07-31T09:13:12;6.13;;;2.92;;
27612;SDS011;15036;48.094;-1.690;2023-07-31T09:15:38;7.45;;;3.20;;
27612;SDS011;15036;48.094;-1.690;2023-07-31T09:18:04;6.35;;;3.40;;
27612;SDS011;15036;48.094;-1.690;2023-07-31T09:20:30;7.30;;;3.17;;
27612;SDS011;15036;48.094;-1.690;2023-07-31T09:23:08;7.22;;;3.30;;
27612;SDS011;15036;48.094;-1.690;2023-07-31T09:25:34;7.07;;;3.40;;
27612;SDS011;15036;48.094;-1.690;2023-07-31T09:28:01;6.87;;;3.30;;
27612;SDS011;15036;48.094;-1.690;2023-07-31T09:30:28;6.75;;;3.35;;
27612;SDS011;15036;48.094;-1.690;2023-07-31T09:33:01;6.20;;;3.20;;
27612;SDS011;15036;48.094;-1.690;2023-07-31T09:35:31;6.55;;;3.20;;
27612;SDS011;15036;48.094;-1.690;2023-07-31T09:38:09;6.53;;;3.40;;
27612;SDS011;15036;48.094;-1.690;2023-07-31T09:40:36;6.97;;;3.50;;
27612;SDS011;15036;48.094;-1.690;2023-07-31T09:43:04;8.45;;;3.70;;
27612;SDS011;15036;48.094;-1.690;2023-07-31T09:45:34;7.70;;;3.70;;
27612;SDS011;15036;48.094;-1.690;2023-07-31T09:48:01;7.63;;;3.88;;
27612;SDS011;15036;48.094;-1.690;2023-07-31T09:50:27;8.73;;;4.23;;
27612;SDS011;15036;48.094;-1.690;2023-07-31T09:52:53;8.53;;;4.20;;
27612;SDS011;15036;48.094;-1.690;2023-07-31T09:55:19;8.60;;;4.30;;
27612;SDS011;15036;48.094;-1.690;2023-07-31T09:57:48;8.40;;;4.47;;
27612;SDS011;15036;48.094;-1.690;2023-07-31T10:00:17;10.10;;;4.87;;
27612;SDS011;15036;48.094;-1.690;2023-07-31T10:02:47;9.57;;;4.47;;
27612;SDS011;15036;48.094;-1.690;2023-07-31T10:05:13;9.13;;;4.70;;
27612;SDS011;15036;48.094;-1.690;2023-07-31T10:07:41;11.05;;;4.95;;
27612;SDS011;15036;48.094;-1.690;2023-07-31T10:10:10;10.70;;;4.88;;
27612;SDS011;15036;48.094;-1.690;2023-07-31T10:12:36;10.00;;;5.07;;
27612;SDS011;15036;48.094;-1.690;2023-07-31T10:15:03;11.57;;;5.18;;
27612;SDS011;15036;48.094;-1.690;2023-07-31T10:17:29;11.18;;;5.20;;
27612;SDS011;15036;48.094;-1.690;2023-07-31T10:19:57;10.80;;;4.85;;
27612;SDS011;15036;48.094;-1.690;2023-07-31T10:22:24;11.13;;;5.30;;
27612;SDS011;15036;48.094;-1.690;2023-07-31T10:24:50;9.43;;;4.65;;
27612;SDS011;15036;48.094;-1.690;2023-07-31T10:27:19;10.40;;;4.88;;
27612;SDS011;15036;48.094;-1.690;2023-07-31T10:29:45;10.48;;;5.20;;
27612;SDS011;15036;48.094;-1.690;2023-07-31T10:32:13;11.00;;;5.22;;
27612;SDS011;15036;48.094;-1.690;2023-07-31T10:34:40;11.80;;;5.33;;
27612;SDS011;15036;48.094;-1.690;2023-07-31T10:40:05;10.00;;;5.10;;
27612;SDS011;15036;48.094;-1.690;2023-07-31T10:42:48;12.32;;;5.47;;
27612;SDS011;15036;48.094;-1.690;2023-07-31T10:45:39;10.80;;;5.45;;
27612;SDS011;15036;48.094;-1.690;2023-07-31T10:48:14;10.80;;;5.28;;
27612;SDS011;15036;48.094;-1.690;2023-07-31T10:50:47;10.83;;;5.33;;
27612;SDS011;15036;48.094;-1.690;2023-07-31T10:53:30;13.05;;;5.60;;
27612;SDS011;15036;48.094;-1.690;2023-07-31T10:55:58;9.25;;;5.03;;
27612;SDS011;15036;48.094;-1.690;2023-07-31T10:58:24;9.57;;;4.53;;
27612;SDS011;15036;48.094;-1.690;2023-07-31T11:00:51;10.80;;;5.07;;
27612;SDS011;15036;48.094;-1.690;2023-07-31T11:03:24;8.48;;;4.30;;
27612;SDS011;15036;48.094;-1.690;2023-07-31T11:06:03;10.63;;;4.57;;
27612;SDS011;15036;48.094;-1.690;2023-07-31T11:08:29;8.68;;;4.10;;
27612;SDS011;15036;48.094;-1.690;2023-07-31T11:13:27;7.17;;;3.87;;
27612;SDS011;15036;48.094;-1.690;2023-07-31T11:15:53;7.90;;;4.00;;
27612;SDS011;15036;48.094;-1.690;2023-07-31T11:18:18;9.38;;;4.18;;
27612;SDS011;15036;48.094;-1.690;2023-07-31T11:20:44;8.67;;;4.20;;
27612;SDS011;15036;48.094;-1.690;2023-07-31T11:23:11;10.87;;;4.63;;
27612;SDS011;15036;48.094;-1.690;2023-07-31T11:25:37;10.03;;;4.30;;
27612;SDS011;15036;48.094;-1.690;2023-07-31T11:28:08;10.38;;;4.80;;
27612;SDS011;15036;48.094;-1.690;2023-07-31T11:30:35;8.43;;;4.68;;
27612;SDS011;15036;48.094;-1.690;2023-07-31T11:33:01;9.87;;;4.87;;
27612;SDS011;15036;48.094;-1.690;2023-07-31T11:35:28;7.75;;;4.40;;
27612;SDS011;15036;48.094;-1.690;2023-07-31T11:37:55;8.57;;;4.72;;
27612;SDS011;15036;48.094;-1.690;2023-07-31T11:40:20;9.70;;;4.60;;
27612;SDS011;15036;48.094;-1.690;2023-07-31T11:42:46;8.75;;;4.07;;
27612;SDS011;15036;48.094;-1.690;2023-07-31T11:45:11;8.07;;;4.20;;
27612;SDS011;15036;48.094;-1.690;2023-07-31T11:47:37;8.05;;;4.30;;
27612;SDS011;15036;48.094;-1.690;2023-07-31T11:50:06;10.07;;;4.55;;
27612;SDS011;15036;48.094;-1.690;2023-07-31T11:52:40;9.57;;;4.50;;
27612;SDS011;15036;48.094;-1.690;2023-07-31T11:55:09;9.20;;;4.57;;
27612;SDS011;15036;48.094;-1.690;2023-07-31T11:57:35;8.13;;;4.30;;
27612;SDS011;15036;48.094;-1.690;2023-07-31T12:00:04;9.43;;;4.40;;
27612;SDS011;15036;48.094;-1.690;2023-07-31T12:02:31;8.70;;;4.32;;
27612;SDS011;15036;48.094;-1.690;2023-07-31T12:04:57;9.10;;;4.80;;
27612;SDS011;15036;48.094;-1.690;2023-07-31T12:07:23;10.37;;;4.40;;
27612;SDS011;15036;48.094;-1.690;2023-07-31T12:09:52;7.90;;;4.40;;
27612;SDS011;15036;48.094;-1.690;2023-07-31T12:12:19;8.05;;;4.40;;
27612;SDS011;15036;48.094;-1.690;2023-07-31T12:14:46;7.50;;;4.20;;
27612;SDS011;15036;48.094;-1.690;2023-07-31T12:17:11;7.33;;;4.23;;
27612;SDS011;15036;48.094;-1.690;2023-07-31T12:19:37;6.23;;;3.90;;
27612;SDS011;15036;48.094;-1.690;2023-07-31T12:22:10;6.03;;;3.60;;
27612;SDS011;15036;48.094;-1.690;2023-07-31T12:24:40;6.40;;;3.70;;
27612;SDS011;15036;48.094;-1.690;2023-07-31T12:27:13;6.60;;;3.90;;
27612;SDS011;15036;48.094;-1.690;2023-07-31T12:29:41;7.72;;;3.47;;
27612;SDS011;15036;48.094;-1.690;2023-07-31T12:32:21;6.72;;;3.30;;
27612;SDS011;15036;48.094;-1.690;2023-07-31T12:34:48;4.83;;;2.93;;
27612;SDS011;15036;48.094;-1.690;2023-07-31T12:37:14;4.10;;;2.80;;
27612;SDS011;15036;48.094;-1.690;2023-07-31T12:39:39;4.50;;;2.80;;
27612;SDS011;15036;48.094;-1.690;2023-07-31T12:42:05;5.20;;;2.87;;
27612;SDS011;15036;48.094;-1.690;2023-07-31T12:44:31;4.77;;;2.80;;
27612;SDS011;15036;48.094;-1.690;2023-07-31T12:46:56;4.93;;;2.47;;
27612;SDS011;15036;48.094;-1.690;2023-07-31T12:49:22;4.25;;;2.20;;
27612;SDS011;15036;48.094;-1.690;2023-07-31T12:51:47;4.00;;;2.40;;
27612;SDS011;15036;48.094;-1.690;2023-07-31T12:54:12;4.30;;;2.20;;
27612;SDS011;15036;48.094;-1.690;2023-07-31T12:56:38;4.10;;;2.40;;
27612;SDS011;15036;48.094;-1.690;2023-07-31T12:59:03;4.17;;;2.40;;
27612;SDS011;15036;48.094;-1.690;2023-07-31T13:01:28;4.07;;;2.27;;
27612;SDS011;15036;48.094;-1.690;2023-07-31T13:03:54;3.70;;;2.30;;
27612;SDS011;15036;48.094;-1.690;2023-07-31T13:06:19;4.55;;;2.15;;
27612;SDS011;15036;48.094;-1.690;2023-07-31T13:08:45;4.17;;;1.80;;
27612;SDS011;15036;48.094;-1.690;2023-07-31T13:11:10;3.83;;;2.17;;
27612;SDS011;15036;48.094;-1.690;2023-07-31T13:13:35;4.00;;;2.10;;
27612;SDS011;15036;48.094;-1.690;2023-07-31T13:16:01;4.50;;;2.03;;
27612;SDS011;15036;48.094;-1.690;2023-07-31T13:18:26;4.73;;;2.10;;
27612;SDS011;15036;48.094;-1.690;2023-07-31T13:20:52;4.50;;;2.07;;
27612;SDS011;15036;48.094;-1.690;2023-07-31T13:23:17;3.45;;;1.60;;
27612;SDS011;15036;48.094;-1.690;2023-07-31T13:25:42;3.30;;;1.70;;
27612;SDS011;15036;48.094;-1.690;2023-07-31T13:28:08;3.38;;;1.60;;
27612;SDS011;15036;48.094;-1.690;2023-07-31T13:30:33;4.03;;;1.63;;
27612;SDS011;15036;48.094;-1.690;2023-07-31T13:32:59;3.40;;;1.67;;
27612;SDS011;15036;48.094;-1.690;2023-07-31T13:35:24;3.30;;;1.60;;
27612;SDS011;15036;48.094;-1.690;2023-07-31T13:37:49;3.40;;;1.90;;
27612;SDS011;15036;48.094;-1.690;2023-07-31T13:40:15;3.50;;;1.77;;
27612;SDS011;15036;48.094;-1.690;2023-07-31T13:42:40;4.90;;;2.03;;
27612;SDS011;15036;48.094;-1.690;2023-07-31T13:45:05;4.63;;;2.10;;
27612;SDS011;15036;48.094;-1.690;2023-07-31T13:47:31;5.13;;;2.17;;
27612;SDS011;15036;48.094;-1.690;2023-07-31T13:49:57;4.50;;;2.17;;
27612;SDS011;15036;48.094;-1.690;2023-07-31T13:52:22;3.60;;;2.10;;
27612;SDS011;15036;48.094;-1.690;2023-07-31T13:54:47;4.33;;;2.37;;
27612;SDS011;15036;48.094;-1.690;2023-07-31T13:57:13;5.53;;;2.60;;
27612;SDS011;15036;48.094;-1.690;2023-07-31T13:59:38;5.15;;;2.28;;
27612;SDS011;15036;48.094;-1.690;2023-07-31T14:02:04;6.07;;;2.30;;
27612;SDS011;15036;48.094;-1.690;2023-07-31T14:04:29;4.30;;;2.20;;
27612;SDS011;15036;48.094;-1.690;2023-07-31T14:06:55;4.38;;;2.40;;
27612;SDS011;15036;48.094;-1.690;2023-07-31T14:09:21;5.05;;;2.28;;
27612;SDS011;15036;48.094;-1.690;2023-07-31T14:11:47;4.37;;;2.40;;
27612;SDS011;15036;48.094;-1.690;2023-07-31T14:14:12;5.17;;;2.60;;
27612;SDS011;15036;48.094;-1.690;2023-07-31T14:16:38;4.87;;;2.70;;
27612;SDS011;15036;48.094;-1.690;2023-07-31T14:19:04;4.83;;;2.70;;
27612;SDS011;15036;48.094;-1.690;2023-07-31T14:21:29;4.20;;;2.40;;
27612;SDS011;15036;48.094;-1.690;2023-07-31T14:23:54;5.40;;;2.63;;
27612;SDS011;15036;48.094;-1.690;2023-07-31T14:26:20;5.17;;;2.50;;
27612;SDS011;15036;48.094;-1.690;2023-07-31T14:28:45;3.97;;;2.65;;
27612;SDS011;15036;48.094;-1.690;2023-07-31T14:31:10;4.47;;;2.70;;
27612;SDS011;15036;48.094;-1.690;2023-07-31T14:33:36;4.90;;;2.50;;
27612;SDS011;15036;48.094;-1.690;2023-07-31T14:36:01;4.17;;;2.57;;
27612;SDS011;15036;48.094;-1.690;2023-07-31T14:38:27;4.40;;;2.70;;